Saltillo, Texas
Current Conditions -  °F | °C
As of 1:15 PM on Thursday 27 Nov 2014 (Local Time) from KSLR Reporting Station
Clear Clear  
Wind Chill: 14°   Ceiling: Unl
Heat Index: 14°   Visibility: 10mi
Dew Point: -8°   Wind: 8mph
Humidity: 21%   Direction: 60°ENE
Pressure: 30.48"   Gusts: NA
Location:  33.18°N, 95.33°W
Report Text: KSLR 271915Z AUTO 06007KT 10SM CLR 14/M08 A3048 RMK AO2 T01391080
Loading
Personal Weather Stations






























Interactive Weather Map New forecast layout! Learn more

10-Day Weather Forecast

Advertisements
Track Severe Weather on mobile